Kezdőlap
METAR-TAF:

METAR-TAF

Repülőterek :

Arauca, Kolumbia

földrajzi szélesség: 07-04N, földrajzi hosszúság: 070-44W, magasság: 128 m

Jelenlegi meteorológiai megfigyelések

A jelentés 8 órával és 38 perccel ezelõtt készült, 01:00 UTC
Szélcsend
Hőmérséklet 26°C
Páratartalom 89%
Légköri nyomás 1010 hPa
Látótávolság 10 km, vagy több
Szakadozott felhőzet 1500 lábon

METAR: SKUC 260100Z 00000KT 9999 BKN015 26/24 Q1010

Idő: 04:38 (09:38 UTC)


TAF: hiányzik

Meteorológiai megfigyelések és előrejelzések több, mint 4000 repülőtéren (METAR és TAF jelentéseket).

A térképen piros és sárga pontok jelzik az elérhető meteorológiai állomásokat.

Mozgassa az egeret a pont fölött, hogy megjelenjen az állomás neve.

Azután kattintson az időjárási megfigyelések és előrejelzések megtekintéséhez.

A térkép megváltoztatása: kattintson a fekete keresztel jelölt zöld gombra ráközelítéshez, a vonallal jelölt zöld gombra távolításhoz, vagy a zöld nyilakra a szomszédos térképek eléréséhez.


METAR-TAF: